createdAt,value
2022-10-17T00:00:26.073Z,2.70
2022-10-17T00:02:56.279Z,2.60
2022-10-17T00:05:24.979Z,2.53
2022-10-17T00:07:52.987Z,3.30
2022-10-17T00:10:21.389Z,2.70
2022-10-17T00:12:49.215Z,2.50
2022-10-17T00:15:20.497Z,2.90
2022-10-17T00:17:48.345Z,2.90
2022-10-17T00:20:18.611Z,3.07
2022-10-17T00:22:46.599Z,2.50
2022-10-17T00:25:14.532Z,2.87
2022-10-17T00:27:43.046Z,2.63
2022-10-17T00:30:14.768Z,2.80
2022-10-17T00:32:44.200Z,2.63
2022-10-17T00:35:12.080Z,2.37
2022-10-17T00:37:39.956Z,3.03
2022-10-17T00:40:09.237Z,2.33
2022-10-17T00:42:37.117Z,2.80
2022-10-17T00:45:14.325Z,2.33
2022-10-17T00:47:52.338Z,3.00
2022-10-17T00:50:22.219Z,2.80
2022-10-17T00:52:52.440Z,2.60
2022-10-17T00:55:26.139Z,2.53
2022-10-17T00:57:54.490Z,2.50
2022-10-17T01:00:22.923Z,2.60
2022-10-17T01:02:52.306Z,2.50
2022-10-17T01:05:21.188Z,2.50
2022-10-17T01:07:54.001Z,2.50
2022-10-17T01:12:59.616Z,2.50
2022-10-17T01:15:41.431Z,2.47
2022-10-17T01:18:19.318Z,2.37
2022-10-17T01:21:24.432Z,2.43
2022-10-17T01:24:29.447Z,2.30
2022-10-17T01:27:14.587Z,2.63
2022-10-17T01:29:54.096Z,2.70
2022-10-17T01:32:27.491Z,2.40
2022-10-17T01:35:02.010Z,2.30
2022-10-17T01:37:34.352Z,2.20
2022-10-17T01:40:10.482Z,2.43
2022-10-17T01:42:44.220Z,2.57
2022-10-17T01:45:17.366Z,2.57
2022-10-17T01:47:48.641Z,2.30
2022-10-17T01:50:23.436Z,2.43
2022-10-17T01:52:55.144Z,2.57
2022-10-17T01:55:28.622Z,2.20
2022-10-17T01:58:00.169Z,2.37
2022-10-17T02:00:30.778Z,2.60
2022-10-17T02:03:04.499Z,2.80
2022-10-17T02:05:36.696Z,2.40
2022-10-17T02:08:05.334Z,2.57
2022-10-17T02:10:43.546Z,2.43
2022-10-17T02:13:20.938Z,2.50
2022-10-17T02:16:09.818Z,2.77
2022-10-17T02:19:09.403Z,2.50
2022-10-17T02:21:44.575Z,2.40
2022-10-17T02:24:21.444Z,2.50
2022-10-17T02:26:56.100Z,2.80
2022-10-17T02:29:28.864Z,2.60
2022-10-17T02:32:01.659Z,2.70
2022-10-17T02:34:34.805Z,2.50
2022-10-17T02:37:08.055Z,2.63
2022-10-17T02:39:37.049Z,2.93
2022-10-17T02:42:08.523Z,3.13
2022-10-17T02:44:40.992Z,2.77
2022-10-17T02:47:17.171Z,2.70
2022-10-17T02:49:51.858Z,2.73
2022-10-17T02:52:27.360Z,2.50
2022-10-17T02:55:01.253Z,3.17
2022-10-17T02:57:36.488Z,2.30
2022-10-17T03:00:08.663Z,2.60
2022-10-17T03:02:41.532Z,2.50
2022-10-17T03:05:14.206Z,2.67
2022-10-17T03:07:42.023Z,2.80
2022-10-17T03:10:10.163Z,3.00
2022-10-17T03:12:38.663Z,2.90
2022-10-17T03:15:07.811Z,2.97
2022-10-17T03:17:35.958Z,2.97
2022-10-17T03:20:04.092Z,2.47
2022-10-17T03:22:33.811Z,2.97
2022-10-17T03:25:03.941Z,2.80
2022-10-17T03:27:32.445Z,2.80
2022-10-17T03:30:00.557Z,2.70
2022-10-17T03:32:28.541Z,3.20
2022-10-17T03:34:56.825Z,2.77
2022-10-17T03:37:24.831Z,2.70
2022-10-17T03:39:54.290Z,2.60
2022-10-17T03:42:22.180Z,2.60
2022-10-17T03:44:50.410Z,2.80
2022-10-17T03:47:18.513Z,3.33
2022-10-17T03:49:47.363Z,2.70
2022-10-17T03:52:16.826Z,2.90
2022-10-17T03:54:44.666Z,2.50
2022-10-17T03:57:13.885Z,2.80
2022-10-17T03:59:41.827Z,2.80
2022-10-17T04:02:15.766Z,2.90
2022-10-17T04:04:44.844Z,3.13
2022-10-17T04:07:12.857Z,2.90
2022-10-17T04:09:44.493Z,2.57
2022-10-17T04:12:16.762Z,2.57
2022-10-17T04:14:45.106Z,2.67
2022-10-17T04:17:13.006Z,2.77
2022-10-17T04:19:40.968Z,2.60
2022-10-17T04:22:09.651Z,2.87
2022-10-17T04:24:40.166Z,2.53
2022-10-17T04:27:17.120Z,2.23
2022-10-17T04:29:46.848Z,2.90
2022-10-17T04:32:22.087Z,2.60
2022-10-17T04:34:55.715Z,2.83
2022-10-17T04:37:24.646Z,2.90
2022-10-17T04:39:55.122Z,2.57
2022-10-17T04:42:24.570Z,2.67
2022-10-17T04:44:54.908Z,3.50
2022-10-17T04:47:26.600Z,2.57
2022-10-17T04:49:54.552Z,2.73
2022-10-17T04:52:24.991Z,2.70
2022-10-17T04:54:54.083Z,3.30
2022-10-17T04:57:24.849Z,2.63
2022-10-17T05:00:13.471Z,2.80
2022-10-17T05:02:55.434Z,2.53
2022-10-17T05:05:23.355Z,3.30
2022-10-17T05:07:54.033Z,3.37
2022-10-17T05:10:26.030Z,3.13
2022-10-17T05:12:56.756Z,4.63
2022-10-17T05:15:28.922Z,4.77
2022-10-17T05:17:57.917Z,3.50
2022-10-17T05:20:27.952Z,3.23
2022-10-17T05:22:56.470Z,3.10
2022-10-17T05:25:24.429Z,2.83
2022-10-17T05:27:52.319Z,3.23
2022-10-17T05:30:21.813Z,2.83
2022-10-17T05:32:55.553Z,3.30
2022-10-17T05:35:23.847Z,3.30
2022-10-17T05:37:53.223Z,3.30
2022-10-17T05:40:22.629Z,2.87
2022-10-17T05:42:53.809Z,3.43
2022-10-17T05:45:24.561Z,3.97
2022-10-17T05:47:52.914Z,3.63
2022-10-17T05:50:23.914Z,3.50
2022-10-17T05:53:05.971Z,3.40
2022-10-17T05:55:39.514Z,3.80
2022-10-17T05:58:09.781Z,3.40
2022-10-17T06:03:18.756Z,4.37
2022-10-17T06:05:47.532Z,4.00
2022-10-17T06:08:15.443Z,3.50
2022-10-17T06:10:44.843Z,3.03
2022-10-17T06:13:12.826Z,3.67
2022-10-17T06:15:41.244Z,3.33
2022-10-17T06:18:12.662Z,3.60
2022-10-17T06:20:45.264Z,3.00
2022-10-17T06:23:15.326Z,4.27
2022-10-17T06:25:52.917Z,3.50
2022-10-17T06:28:20.997Z,3.40
2022-10-17T06:30:48.998Z,3.40
2022-10-17T06:33:18.234Z,3.43
2022-10-17T06:35:52.399Z,3.47
2022-10-17T06:38:20.658Z,3.50
2022-10-17T06:40:50.222Z,3.30
2022-10-17T06:43:18.161Z,3.30
2022-10-17T06:46:17.709Z,3.50
2022-10-17T06:48:56.897Z,3.50
2022-10-17T06:51:38.121Z,3.43
2022-10-17T06:54:08.949Z,3.03
2022-10-17T06:56:48.427Z,2.87
2022-10-17T06:59:28.406Z,3.07
2022-10-17T07:02:09.901Z,3.30
2022-10-17T07:04:40.443Z,3.40
2022-10-17T07:07:08.368Z,3.50
2022-10-17T07:09:36.981Z,3.30
2022-10-17T07:12:08.067Z,3.77
2022-10-17T07:14:36.260Z,5.50
2022-10-17T07:17:05.235Z,5.07
2022-10-17T07:19:34.285Z,3.40
2022-10-17T07:22:03.484Z,3.20
2022-10-17T07:24:33.386Z,3.57
2022-10-17T07:27:14.004Z,4.00
2022-10-17T07:29:42.346Z,4.17
2022-10-17T07:32:19.728Z,3.67
2022-10-17T07:34:47.837Z,3.73
2022-10-17T07:37:17.694Z,9.53
2022-10-17T07:39:52.401Z,4.10
2022-10-17T07:42:20.312Z,4.03
2022-10-17T07:44:48.236Z,3.93
2022-10-17T07:47:16.464Z,4.47
2022-10-17T07:49:45.262Z,5.03
2022-10-17T07:52:13.819Z,5.50
2022-10-17T07:54:43.415Z,5.70
2022-10-17T07:57:11.578Z,4.73
2022-10-17T07:59:39.487Z,4.70
2022-10-17T08:02:08.381Z,4.00
2022-10-17T08:04:36.727Z,4.60
2022-10-17T08:07:19.578Z,4.80
2022-10-17T08:09:50.269Z,4.17
2022-10-17T08:12:18.442Z,5.40
2022-10-17T08:14:46.603Z,4.83
2022-10-17T08:17:14.521Z,4.37
2022-10-17T08:19:42.482Z,3.97
2022-10-17T08:22:10.573Z,4.60
2022-10-17T08:24:38.365Z,4.53
2022-10-17T08:27:11.317Z,3.60
2022-10-17T08:29:39.672Z,3.37
2022-10-17T08:32:09.955Z,3.20
2022-10-17T08:34:38.424Z,4.07
2022-10-17T08:37:06.464Z,3.63
2022-10-17T08:39:34.465Z,3.63
2022-10-17T08:42:19.304Z,3.27
2022-10-17T08:44:58.124Z,3.37
2022-10-17T08:47:30.633Z,3.73
2022-10-17T08:50:02.161Z,3.57
2022-10-17T08:52:37.590Z,3.50
2022-10-17T08:55:10.631Z,3.83
2022-10-17T08:57:39.889Z,3.40
2022-10-17T09:00:17.163Z,3.20
2022-10-17T09:02:58.540Z,3.60
2022-10-17T09:05:38.591Z,3.40
2022-10-17T09:08:17.513Z,3.27
2022-10-17T09:10:57.729Z,3.63
2022-10-17T09:13:37.758Z,3.57
2022-10-17T09:16:18.733Z,3.37
2022-10-17T09:18:51.873Z,3.30
2022-10-17T09:21:26.637Z,3.70
2022-10-17T09:24:08.806Z,3.13
2022-10-17T09:26:38.268Z,3.37
2022-10-17T09:29:20.720Z,3.90
2022-10-17T09:31:54.647Z,3.67
2022-10-17T09:34:26.692Z,3.27
2022-10-17T09:36:56.148Z,3.10
2022-10-17T09:39:26.102Z,3.60
2022-10-17T09:41:56.569Z,3.27
2022-10-17T09:44:30.444Z,3.00
2022-10-17T09:47:07.291Z,2.97
2022-10-17T09:49:37.336Z,2.80
2022-10-17T09:52:10.054Z,3.20
2022-10-17T09:54:43.719Z,2.90
2022-10-17T09:57:12.878Z,2.70
2022-10-17T09:59:44.101Z,2.70
2022-10-17T10:02:22.130Z,2.77
2022-10-17T10:05:05.932Z,3.07
2022-10-17T10:07:37.276Z,3.00
2022-10-17T10:10:08.187Z,3.10
2022-10-17T10:12:37.954Z,3.10
2022-10-17T10:15:32.169Z,2.47
2022-10-17T10:18:00.147Z,2.50
2022-10-17T10:20:33.162Z,3.50
2022-10-17T10:23:17.206Z,2.97
2022-10-17T10:25:55.792Z,2.43
2022-10-17T10:28:28.162Z,2.30
2022-10-17T10:31:00.376Z,2.60
2022-10-17T10:33:31.102Z,2.70
2022-10-17T10:36:03.464Z,2.70
2022-10-17T10:38:33.720Z,2.70
2022-10-17T10:41:05.536Z,2.90
2022-10-17T10:43:37.825Z,2.77
2022-10-17T10:46:18.619Z,3.05
2022-10-17T10:48:56.410Z,2.35
2022-10-17T10:51:29.647Z,2.00
2022-10-17T10:54:04.000Z,1.55
2022-10-17T10:56:35.913Z,1.60
2022-10-17T10:59:07.568Z,1.75
2022-10-17T11:01:46.299Z,1.52
2022-10-17T11:04:24.288Z,1.73
2022-10-17T11:06:56.236Z,1.50
2022-10-17T11:09:33.947Z,1.50
2022-10-17T11:12:07.077Z,1.45
2022-10-17T11:14:43.289Z,1.50
2022-10-17T11:17:20.709Z,1.50
2022-10-17T11:19:53.324Z,1.60
2022-10-17T11:22:29.358Z,1.52
2022-10-17T11:25:01.068Z,1.50
2022-10-17T11:27:31.073Z,1.35
2022-10-17T11:29:59.959Z,1.63
2022-10-17T11:32:35.842Z,1.60
2022-10-17T11:35:07.941Z,1.30
2022-10-17T11:37:41.357Z,1.40
2022-10-17T11:40:20.393Z,1.75
2022-10-17T11:42:56.331Z,1.50
2022-10-17T11:45:28.166Z,1.58
2022-10-17T11:48:03.971Z,1.33
2022-10-17T11:53:25.916Z,1.30
2022-10-17T11:55:55.434Z,1.35
2022-10-17T11:58:31.003Z,1.50
2022-10-17T12:01:08.500Z,1.30
2022-10-17T12:03:49.628Z,1.27
2022-10-17T12:06:29.367Z,1.60
2022-10-17T12:09:02.389Z,1.42
2022-10-17T12:11:41.159Z,2.50
2022-10-17T12:14:36.988Z,1.30
2022-10-17T12:17:06.970Z,1.50
2022-10-17T12:19:38.154Z,1.52
2022-10-17T12:22:25.993Z,1.60
2022-10-17T12:24:59.937Z,1.50
2022-10-17T12:27:38.350Z,1.67
2022-10-17T12:30:16.889Z,1.65
2022-10-17T12:33:08.067Z,1.50
2022-10-17T12:35:39.317Z,1.48
2022-10-17T12:38:28.691Z,1.52
2022-10-17T12:40:59.434Z,1.30
2022-10-17T12:43:52.319Z,1.38
2022-10-17T12:46:43.256Z,1.73
2022-10-17T12:49:37.014Z,1.38
2022-10-17T12:52:21.871Z,1.40
2022-10-17T12:55:14.980Z,1.25
2022-10-17T12:57:56.571Z,1.30
2022-10-17T13:00:32.611Z,1.80
2022-10-17T13:03:06.815Z,1.33
2022-10-17T13:05:37.512Z,1.70
2022-10-17T13:08:09.802Z,1.85
2022-10-17T13:10:43.069Z,2.33
2022-10-17T13:13:17.320Z,2.30
2022-10-17T13:15:48.280Z,1.90
2022-10-17T13:18:21.560Z,2.35
2022-10-17T13:20:57.771Z,2.30
2022-10-17T13:23:30.575Z,2.30
2022-10-17T13:26:07.610Z,2.17
2022-10-17T13:28:39.229Z,2.10
2022-10-17T13:31:08.315Z,2.33
2022-10-17T13:33:39.121Z,1.87
2022-10-17T13:36:14.083Z,1.80
2022-10-17T13:38:44.098Z,2.00
2022-10-17T13:44:05.440Z,1.70
2022-10-17T13:46:38.447Z,1.88
2022-10-17T13:49:13.492Z,1.87
2022-10-17T13:51:45.442Z,2.20
2022-10-17T13:54:37.438Z,2.03
2022-10-17T13:57:06.578Z,1.67
2022-10-17T13:59:39.561Z,1.98
2022-10-17T14:02:14.634Z,2.03
2022-10-17T14:05:15.004Z,1.83
2022-10-17T14:08:05.848Z,1.90
2022-10-17T14:10:31.744Z,1.87
2022-10-17T14:13:00.989Z,1.90
2022-10-17T14:15:30.795Z,1.70
2022-10-17T14:18:04.229Z,2.20
2022-10-17T14:21:08.189Z,2.17
2022-10-17T14:23:37.835Z,1.73
2022-10-17T14:26:14.342Z,2.00
2022-10-17T14:28:43.918Z,1.67
2022-10-17T14:31:32.020Z,1.80
2022-10-17T14:34:01.693Z,1.73
2022-10-17T14:36:35.728Z,1.70
2022-10-17T14:39:04.466Z,2.03
2022-10-17T14:41:44.213Z,1.70
2022-10-17T14:44:25.763Z,1.70
2022-10-17T14:47:03.453Z,1.65
2022-10-17T14:49:41.934Z,1.60
2022-10-17T14:52:24.631Z,1.80
2022-10-17T14:54:52.678Z,1.80
2022-10-17T14:57:26.785Z,1.85
2022-10-17T14:59:56.172Z,1.67
2022-10-17T15:02:25.388Z,1.50
2022-10-17T15:04:53.605Z,1.80
2022-10-17T15:07:22.154Z,2.00
2022-10-17T15:09:51.818Z,2.00
2022-10-17T15:12:23.005Z,2.58
2022-10-17T15:14:51.715Z,2.78
2022-10-17T15:17:22.164Z,2.85
2022-10-17T15:19:50.505Z,1.83
2022-10-17T15:22:18.899Z,1.92
2022-10-17T15:24:47.388Z,2.00
2022-10-17T15:27:17.050Z,2.00
2022-10-17T15:29:46.803Z,2.00
2022-10-17T15:32:14.968Z,2.35
2022-10-17T15:34:43.535Z,2.20
2022-10-17T15:37:18.769Z,2.60
2022-10-17T15:39:52.879Z,2.28
2022-10-17T15:42:21.570Z,1.73
2022-10-17T15:44:50.815Z,2.17
2022-10-17T15:47:25.989Z,2.27
2022-10-17T15:49:54.680Z,2.28
2022-10-17T15:52:23.174Z,2.20
2022-10-17T15:54:52.322Z,2.50
2022-10-17T15:57:23.021Z,2.10
2022-10-17T15:59:53.517Z,1.73
2022-10-17T16:02:23.925Z,2.63
2022-10-17T16:04:53.041Z,2.47
2022-10-17T16:07:21.851Z,2.80
2022-10-17T16:09:49.813Z,2.53
2022-10-17T16:12:19.976Z,2.50
2022-10-17T16:14:47.876Z,2.50
2022-10-17T16:17:17.964Z,2.63
2022-10-17T16:19:46.178Z,2.70
2022-10-17T16:22:22.372Z,2.97
2022-10-17T16:24:50.799Z,3.20
2022-10-17T16:27:18.954Z,2.70
2022-10-17T16:29:46.811Z,2.73
2022-10-17T16:32:14.792Z,2.73
2022-10-17T16:34:43.953Z,2.43
2022-10-17T16:37:11.850Z,3.17
2022-10-17T16:39:39.740Z,3.00
2022-10-17T16:42:07.617Z,3.10
2022-10-17T16:44:35.396Z,2.90
2022-10-17T16:47:03.330Z,3.17
2022-10-17T16:49:31.202Z,2.80
2022-10-17T16:52:00.435Z,3.23
2022-10-17T16:54:28.314Z,3.03
2022-10-17T16:56:57.593Z,3.10
2022-10-17T16:59:25.986Z,3.23
2022-10-17T17:01:53.919Z,2.70
2022-10-17T17:04:22.220Z,3.60
2022-10-17T17:06:50.183Z,2.83
2022-10-17T17:09:19.411Z,2.60
2022-10-17T17:11:47.484Z,3.10
2022-10-17T17:14:15.786Z,3.27
2022-10-17T17:16:44.149Z,3.57
2022-10-17T17:19:14.349Z,3.37
2022-10-17T17:21:47.454Z,3.93
2022-10-17T17:24:15.459Z,3.20
2022-10-17T17:26:46.047Z,2.97
2022-10-17T17:29:14.095Z,3.10
2022-10-17T17:31:41.997Z,3.13
2022-10-17T17:34:11.991Z,3.17
2022-10-17T17:36:42.295Z,3.67
2022-10-17T17:39:12.736Z,3.90
2022-10-17T17:41:41.166Z,3.70
2022-10-17T17:44:15.678Z,4.10
2022-10-17T17:46:45.060Z,3.40
2022-10-17T17:49:18.711Z,3.20
2022-10-17T17:51:48.083Z,3.20
2022-10-17T17:54:16.496Z,3.77
2022-10-17T17:56:44.479Z,3.67
2022-10-17T17:59:14.407Z,3.20
2022-10-17T18:01:42.749Z,3.43
2022-10-17T18:04:12.160Z,3.40
2022-10-17T18:06:40.556Z,3.60
2022-10-17T18:09:09.067Z,3.70
2022-10-17T18:11:37.783Z,4.10
2022-10-17T18:14:07.378Z,3.60
2022-10-17T18:16:38.097Z,3.60
2022-10-17T18:19:08.814Z,4.03
2022-10-17T18:21:37.327Z,3.80
2022-10-17T18:24:06.038Z,4.03
2022-10-17T18:26:34.425Z,3.73
2022-10-17T18:29:02.619Z,3.67
2022-10-17T18:31:35.432Z,4.30
2022-10-17T18:34:06.832Z,3.87
2022-10-17T18:36:37.277Z,3.50
2022-10-17T18:39:06.684Z,3.50
2022-10-17T18:41:35.462Z,3.43
2022-10-17T18:44:05.315Z,3.77
2022-10-17T18:46:40.097Z,3.63
2022-10-17T18:49:09.923Z,3.80
2022-10-17T18:51:37.996Z,4.00
2022-10-17T18:54:06.025Z,3.57
2022-10-17T18:56:33.837Z,3.50
2022-10-17T18:59:02.537Z,3.70
2022-10-17T19:01:30.747Z,3.50
2022-10-17T19:04:00.106Z,3.77
2022-10-17T19:06:31.942Z,3.70
2022-10-17T19:09:00.171Z,3.53
2022-10-17T19:11:29.847Z,3.70
2022-10-17T19:13:58.995Z,3.77
2022-10-17T19:16:29.375Z,3.60
2022-10-17T19:18:59.076Z,4.27
2022-10-17T19:21:27.247Z,3.63
2022-10-17T19:23:57.679Z,4.10
2022-10-17T19:26:26.679Z,3.40
2022-10-17T19:28:55.176Z,3.50
2022-10-17T19:31:26.976Z,3.97
2022-10-17T19:33:56.143Z,4.03
2022-10-17T19:36:29.073Z,3.97
2022-10-17T19:39:02.366Z,4.60
2022-10-17T19:41:30.280Z,4.07
2022-10-17T19:43:58.259Z,3.80
2022-10-17T19:46:27.981Z,3.70
2022-10-17T19:48:56.380Z,3.67
2022-10-17T19:51:26.194Z,4.10
2022-10-17T19:53:55.450Z,3.30
2022-10-17T19:56:26.125Z,3.27
2022-10-17T19:58:55.628Z,3.83
2022-10-17T20:01:25.250Z,4.07
2022-10-17T20:03:53.629Z,3.70
2022-10-17T20:06:22.551Z,4.97
2022-10-17T20:08:50.906Z,3.80
2022-10-17T20:11:20.628Z,3.77
2022-10-17T20:13:50.477Z,3.63
2022-10-17T20:16:21.422Z,4.30
2022-10-17T20:18:50.175Z,5.37
2022-10-17T20:21:20.127Z,5.80
2022-10-17T20:23:48.351Z,3.50
2022-10-17T20:26:26.389Z,4.13
2022-10-17T20:29:10.679Z,3.83
2022-10-17T20:31:40.118Z,4.07
2022-10-17T20:34:08.037Z,3.97
2022-10-17T20:36:37.428Z,4.20
2022-10-17T20:39:07.129Z,4.53
2022-10-17T20:41:35.376Z,4.00
2022-10-17T20:44:03.407Z,4.20
2022-10-17T20:46:37.241Z,4.50
2022-10-17T20:49:06.810Z,3.90
2022-10-17T20:51:35.528Z,4.63
2022-10-17T20:54:03.775Z,5.13
2022-10-17T20:56:33.321Z,4.80
2022-10-17T20:59:03.430Z,4.23
2022-10-17T21:01:34.560Z,4.73
2022-10-17T21:04:26.937Z,4.00
2022-10-17T21:06:52.037Z,4.20
2022-10-17T21:09:20.786Z,4.00
2022-10-17T21:11:51.161Z,4.13
2022-10-17T21:14:19.468Z,4.67
2022-10-17T21:16:49.435Z,4.00
2022-10-17T21:19:17.648Z,4.57
2022-10-17T21:21:47.268Z,3.93
2022-10-17T21:24:18.027Z,3.53
2022-10-17T21:26:47.428Z,4.90
2022-10-17T21:29:15.437Z,4.03
2022-10-17T21:31:45.063Z,4.10
2022-10-17T21:34:17.463Z,4.20
2022-10-17T21:36:46.121Z,4.10
2022-10-17T21:39:15.090Z,3.90
2022-10-17T21:41:43.779Z,3.90
2022-10-17T21:44:15.553Z,3.80
2022-10-17T21:46:43.909Z,4.60
2022-10-17T21:49:15.158Z,3.93
2022-10-17T21:51:44.027Z,4.57
2022-10-17T21:54:12.692Z,4.10
2022-10-17T21:56:40.775Z,4.07
2022-10-17T21:59:09.445Z,4.10
2022-10-17T22:01:39.311Z,4.60
2022-10-17T22:04:09.037Z,3.67
2022-10-17T22:06:41.167Z,4.00
2022-10-17T22:09:13.193Z,4.67
2022-10-17T22:11:41.714Z,4.23
2022-10-17T22:14:13.158Z,4.90
2022-10-17T22:16:42.010Z,4.37
2022-10-17T22:19:09.914Z,4.73
2022-10-17T22:21:39.339Z,4.30
2022-10-17T22:24:09.051Z,4.90
2022-10-17T22:26:38.256Z,4.10
2022-10-17T22:29:07.632Z,4.10
2022-10-17T22:31:35.855Z,4.20
2022-10-17T22:34:05.350Z,4.60
2022-10-17T22:36:33.801Z,5.03
2022-10-17T22:39:03.611Z,4.33
2022-10-17T22:41:31.510Z,4.33
2022-10-17T22:43:59.415Z,4.57
2022-10-17T22:46:27.261Z,4.60
2022-10-17T22:48:55.302Z,5.50
2022-10-17T22:53:52.144Z,4.40
2022-10-17T22:56:22.885Z,5.53
2022-10-17T22:58:51.354Z,5.00
2022-10-17T23:01:21.007Z,4.57
2022-10-17T23:03:49.122Z,3.90
2022-10-17T23:06:17.170Z,4.10
2022-10-17T23:08:45.504Z,4.10
2022-10-17T23:11:14.049Z,4.30
2022-10-17T23:13:43.546Z,4.80
2022-10-17T23:16:11.454Z,4.97
2022-10-17T23:18:40.141Z,4.60
2022-10-17T23:21:08.842Z,5.10
2022-10-17T23:23:37.208Z,4.03
2022-10-17T23:26:06.409Z,4.57
2022-10-17T23:28:35.528Z,4.97
2022-10-17T23:31:16.512Z,4.23
2022-10-17T23:33:45.666Z,4.40
2022-10-17T23:36:14.702Z,4.47
2022-10-17T23:38:43.618Z,4.83
2022-10-17T23:41:11.826Z,4.53
2022-10-17T23:43:39.758Z,4.80
2022-10-17T23:46:08.107Z,4.37
2022-10-17T23:48:38.584Z,4.60
2022-10-17T23:51:07.100Z,4.70
2022-10-17T23:53:35.196Z,4.30
2022-10-17T23:56:03.107Z,4.90
2022-10-17T23:58:31.458Z,4.50
